Plainfield, Massachusetts
Current Conditions -  °F | °C
As of 4:52 AM on Sunday 26 Oct 2014 (Local Time) from KAQW Reporting Station
Broken Clouds Broken Clouds  
Wind Chill: 45°   Ceiling: 5500
Heat Index: 49°   Visibility: 10mi
Dew Point: 41°   Wind: 8mph
Humidity: 74%   Direction: 240°WSW
Pressure: 29.5"   Gusts: NA
Location:  42.51°N, 72.91°W
Report Text: KAQW 260852Z AUTO 24007KT 10SM FEW043 BKN055 09/05 A2950 RMK AO2 SLP992 60004 T00940050 55000
Loading
Personal Weather Stations






























Interactive Weather Map
Tropical Storm Tracking
New forecast layout! Learn more

10-Day Weather Forecast

Advertisements
Track Severe Weather on mobile